Time;durP1;ratioP1;P1;durP2;ratioP2;P2;SDS_P1;SDS_P2;PMS_P1;PMS_P2;Temp;Humidity;BMP_temperature;BMP_pressure;BME280_temperature;BME280_humidity;BME280_pressure;Samples;Min_cycle;Max_cycle;Signal;HPM_P1;HPM_P2
2023/04/28 00:01:32;;;;;;;14.40;10.50;;;12.80;73.30;;;;;;5052477;28;20211;-82
2023/04/28 00:03:59;;;;;;;11.63;9.70;;;12.80;72.60;;;;;;5053389;28;20175;-82
2023/04/28 00:06:25;;;;;;;11.43;9.40;;;12.80;72.40;;;;;;5052424;28;20196;-81
2023/04/28 00:08:50;;;;;;;9.77;8.87;;;12.80;74.30;;;;;;5052739;28;20453;-82
2023/04/28 00:11:16;;;;;;;10.87;9.23;;;12.90;74.80;;;;;;5053219;28;20179;-83
2023/04/28 00:13:42;;;;;;;11.03;10.03;;;12.90;74.70;;;;;;5051627;28;20183;-83
2023/04/28 00:16:07;;;;;;;12.13;9.40;;;12.90;74.60;;;;;;5051960;28;20520;-82
2023/04/28 00:18:34;;;;;;;14.67;9.87;;;12.90;74.70;;;;;;5052781;28;20186;-82
2023/04/28 00:21:00;;;;;;;11.47;10.20;;;12.90;76.50;;;;;;5034409;28;20180;-82
2023/04/28 00:23:26;;;;;;;11.90;10.70;;;13.00;78.20;;;;;;5051021;28;20757;-82
2023/04/28 00:25:53;;;;;;;11.80;10.47;;;13.00;82.00;;;;;;5052940;28;20430;-82
2023/04/28 00:28:19;;;;;;;11.80;10.60;;;13.00;83.60;;;;;;5050069;28;20207;-81
2023/04/28 00:30:46;;;;;;;12.20;9.60;;;13.00;85.30;;;;;;5052626;28;20417;-82
2023/04/28 00:33:12;;;;;;;13.37;10.30;;;13.00;87.30;;;;;;5051718;28;20410;-82
2023/04/28 00:35:39;;;;;;;11.50;9.97;;;13.00;89.70;;;;;;5051333;28;20521;-82
2023/04/28 00:38:05;;;;;;;12.10;10.03;;;13.00;90.90;;;;;;5051381;28;20458;-82
2023/04/28 00:40:34;;;;;;;11.60;10.30;;;12.90;87.60;;;;;;5050913;28;20947;-82
2023/04/28 00:43:00;;;;;;;13.13;10.13;;;12.90;89.10;;;;;;5051419;28;20267;-82
2023/04/28 00:45:26;;;;;;;11.00;9.90;;;12.90;90.40;;;;;;5051899;28;20497;-81
2023/04/28 00:47:52;;;;;;;12.07;10.27;;;13.00;91.90;;;;;;5052455;28;20168;-82
2023/04/28 00:50:18;;;;;;;11.57;10.27;;;12.90;92.70;;;;;;5051377;28;20212;-82
2023/04/28 00:52:43;;;;;;;11.33;10.17;;;12.90;93.80;;;;;;5050937;28;20446;-83
2023/04/28 00:55:09;;;;;;;13.20;11.63;;;13.00;95.30;;;;;;5052631;28;20439;-83
2023/04/28 00:57:35;;;;;;;11.53;10.33;;;13.00;96.40;;;;;;5050496;28;20472;-82
2023/04/28 01:00:03;;;;;;;11.27;10.07;;;12.90;97.30;;;;;;5052370;28;20271;-82
2023/04/28 01:02:29;;;;;;;12.00;10.63;;;12.90;98.10;;;;;;5051624;28;20942;-81
2023/04/28 01:04:56;;;;;;;13.13;10.63;;;12.80;99.20;;;;;;5051108;28;20895;-82
2023/04/28 01:07:22;;;;;;;11.80;10.57;;;12.80;99.90;;;;;;5035631;28;20487;-80
2023/04/28 01:09:48;;;;;;;12.77;10.97;;;12.80;99.90;;;;;;5032297;28;20916;-82
2023/04/28 01:12:14;;;;;;;12.90;11.43;;;12.70;99.90;;;;;;5032591;28;20535;-82
2023/04/28 01:14:40;;;;;;;12.03;10.83;;;12.70;99.90;;;;;;5031892;28;20219;-82
2023/04/28 01:17:07;;;;;;;12.27;11.00;;;12.70;99.90;;;;;;5032820;28;20895;-82
2023/04/28 01:19:32;;;;;;;13.20;11.57;;;12.70;99.90;;;;;;5034457;28;20425;-82
2023/04/28 01:21:58;;;;;;;12.77;10.93;;;12.70;99.90;;;;;;5051951;28;20419;-82
2023/04/28 01:24:24;;;;;;;13.13;11.80;;;12.60;99.90;;;;;;5049892;28;20191;-80
2023/04/28 01:26:50;;;;;;;12.40;11.10;;;12.60;99.90;;;;;;5050708;28;20180;-82
2023/04/28 01:29:16;;;;;;;16.60;13.27;;;12.60;99.90;;;;;;5049841;28;20637;-82
2023/04/28 01:31:41;;;;;;;16.77;14.90;;;12.60;99.90;;;;;;5051337;28;20270;-82
2023/04/28 01:34:07;;;;;;;20.80;15.93;;;12.60;99.90;;;;;;5050921;28;20206;-82
2023/04/28 01:36:33;;;;;;;21.67;17.30;;;12.60;99.90;;;;;;5050945;28;20168;-82
2023/04/28 01:39:05;;;;;;;23.07;16.80;;;12.60;99.90;;;;;;5051035;28;20160;-82
2023/04/28 01:41:34;;;;;;;19.13;17.13;;;12.60;99.90;;;;;;5051529;28;20860;-82
2023/04/28 01:43:59;;;;;;;17.63;13.67;;;12.70;99.90;;;;;;5052207;28;20398;-82
2023/04/28 01:46:25;;;;;;;14.50;13.10;;;12.70;99.90;;;;;;5052871;28;20422;-80
2023/04/28 01:48:51;;;;;;;15.23;12.37;;;12.70;99.90;;;;;;5058328;28;20460;-81
2023/04/28 01:51:17;;;;;;;14.93;13.10;;;12.70;99.90;;;;;;5063692;28;20175;-83
2023/04/28 01:53:48;;;;;;;15.07;13.47;;;12.60;99.90;;;;;;5064095;28;20307;-82
2023/04/28 01:56:14;;;;;;;17.87;15.20;;;12.70;99.90;;;;;;5063998;28;20171;-83
2023/04/28 01:58:40;;;;;;;18.60;15.67;;;12.60;99.90;;;;;;5063973;28;20433;-82
2023/04/28 02:01:06;;;;;;;17.70;15.90;;;12.60;99.90;;;;;;5052073;28;20679;-82
2023/04/28 02:03:31;;;;;;;24.03;18.53;;;12.60;99.90;;;;;;5056412;28;20176;-81
2023/04/28 02:05:58;;;;;;;28.73;22.17;;;12.60;99.90;;;;;;5062801;28;20246;-83
2023/04/28 02:08:24;;;;;;;34.10;22.43;;;12.60;99.90;;;;;;5058722;28;20728;-82
2023/04/28 02:10:49;;;;;;;28.07;20.73;;;12.60;99.90;;;;;;5056194;28;20435;-82
2023/04/28 02:13:16;;;;;;;28.97;22.30;;;12.60;99.90;;;;;;5054269;28;20262;-82
2023/04/28 02:15:42;;;;;;;30.13;23.50;;;12.60;99.90;;;;;;5057466;28;20192;-83
2023/04/28 02:18:09;;;;;;;31.20;22.53;;;12.60;99.90;;;;;;5060760;28;20492;-81
2023/04/28 02:20:35;;;;;;;33.43;24.00;;;12.60;99.90;;;;;;5055586;28;20428;-82
2023/04/28 02:23:01;;;;;;;32.17;23.60;;;12.60;99.90;;;;;;5055514;28;20475;-82
2023/04/28 02:25:26;;;;;;;30.00;22.77;;;12.60;99.90;;;;;;5055363;28;20209;-81
2023/04/28 02:27:52;;;;;;;29.40;23.27;;;12.60;99.90;;;;;;5055826;28;20207;-82
2023/04/28 02:30:18;;;;;;;30.43;23.60;;;12.60;99.90;;;;;;5054598;28;20203;-82
2023/04/28 02:32:44;;;;;;;25.60;21.57;;;12.70;99.90;;;;;;5055622;28;20170;-82
2023/04/28 02:35:09;;;;;;;27.70;21.87;;;12.60;99.90;;;;;;5037863;28;20248;-82
2023/04/28 02:37:35;;;;;;;24.93;20.20;;;12.60;99.90;;;;;;5037939;28;20494;-82
2023/04/28 02:40:01;;;;;;;24.33;19.13;;;12.60;99.90;;;;;;5055032;28;20538;-83
2023/04/28 02:42:27;;;;;;;20.20;17.13;;;12.60;99.90;;;;;;5054875;28;20193;-80
2023/04/28 02:44:53;;;;;;;17.47;14.33;;;12.60;99.90;;;;;;5055214;28;20172;-82
2023/04/28 02:47:18;;;;;;;16.07;14.33;;;12.60;99.90;;;;;;5055704;28;20799;-82
2023/04/28 02:49:44;;;;;;;15.17;13.57;;;12.60;99.90;;;;;;5054974;28;20206;-83
2023/04/28 02:52:10;;;;;;;18.50;13.83;;;12.60;99.90;;;;;;5055509;28;20174;-83
2023/04/28 02:54:36;;;;;;;16.70;13.63;;;12.60;99.90;;;;;;5054713;28;20230;-82
2023/04/28 02:57:03;;;;;;;18.57;16.57;;;12.60;99.90;;;;;;5055070;28;20414;-83
2023/04/28 02:59:29;;;;;;;18.43;16.40;;;12.60;99.90;;;;;;5054696;28;20600;-82
2023/04/28 03:01:55;;;;;;;18.03;16.23;;;12.60;99.90;;;;;;5055010;28;20403;-83
2023/04/28 03:04:21;;;;;;;18.97;16.47;;;12.50;99.90;;;;;;5042499;28;20912;-83
2023/04/28 03:06:47;;;;;;;21.07;16.50;;;12.50;99.90;;;;;;5034691;28;20886;-82
2023/04/28 03:09:14;;;;;;;25.07;17.50;;;12.50;99.90;;;;;;5033977;28;20459;-81
2023/04/28 03:11:40;;;;;;;19.47;17.20;;;12.50;99.90;;;;;;5034394;28;20173;-80
2023/04/28 03:14:06;;;;;;;20.77;16.87;;;12.50;99.90;;;;;;5034933;28;20752;-81
2023/04/28 03:16:32;;;;;;;18.37;16.43;;;12.50;99.90;;;;;;5033411;28;20172;-81
2023/04/28 03:18:58;;;;;;;19.43;17.43;;;12.50;99.90;;;;;;5035243;28;20814;-81
2023/04/28 03:21:26;;;;;;;18.30;15.47;;;12.50;99.90;;;;;;5034825;28;20496;-82
2023/04/28 03:23:52;;;;;;;17.87;16.10;;;12.50;99.90;;;;;;5033079;28;20525;-81
2023/04/28 03:26:18;;;;;;;16.70;14.90;;;12.50;99.90;;;;;;5033775;28;20503;-82
2023/04/28 03:28:44;;;;;;;16.03;14.33;;;12.50;99.90;;;;;;5034269;28;20604;-82
2023/04/28 03:31:10;;;;;;;17.33;15.17;;;12.60;99.90;;;;;;5034605;28;20180;-82
2023/04/28 03:33:36;;;;;;;16.93;14.93;;;12.50;99.90;;;;;;5034093;28;20401;-81
2023/04/28 03:36:01;;;;;;;18.30;15.53;;;12.50;99.90;;;;;;5033248;28;20179;-82
2023/04/28 03:38:27;;;;;;;17.10;14.03;;;12.50;99.90;;;;;;5034209;28;20630;-82
2023/04/28 03:40:53;;;;;;;17.13;14.40;;;12.50;99.90;;;;;;5033415;28;20522;-81
2023/04/28 03:43:19;;;;;;;16.77;14.63;;;12.50;99.90;;;;;;5034173;28;20175;-81
2023/04/28 03:45:44;;;;;;;16.83;15.07;;;12.40;99.90;;;;;;5033579;28;20190;-81
2023/04/28 03:48:10;;;;;;;19.07;17.20;;;12.50;99.90;;;;;;5033389;28;20188;-81
2023/04/28 03:50:36;;;;;;;19.47;15.40;;;12.40;99.90;;;;;;5033687;28;20259;-81
2023/04/28 03:53:01;;;;;;;17.50;15.73;;;12.50;99.90;;;;;;5039471;28;20309;-81
2023/04/28 03:55:27;;;;;;;17.10;14.70;;;12.50;99.90;;;;;;5053808;28;20594;-82
2023/04/28 03:57:53;;;;;;;18.10;15.20;;;12.50;99.90;;;;;;5053162;28;20164;-89
2023/04/28 04:00:19;;;;;;;16.37;14.40;;;12.50;99.90;;;;;;5053134;28;20178;-82
2023/04/28 04:02:45;;;;;;;16.83;13.73;;;12.50;99.90;;;;;;5051925;28;20892;-82
2023/04/28 04:05:11;;;;;;;14.03;12.53;;;12.50;99.90;;;;;;5054169;28;20741;-83
2023/04/28 04:07:37;;;;;;;12.97;11.67;;;12.50;99.90;;;;;;5052079;28;20417;-82
2023/04/28 04:10:02;;;;;;;14.40;13.10;;;12.60;99.90;;;;;;5053951;28;20202;-83
2023/04/28 04:12:28;;;;;;;13.40;11.60;;;12.60;99.90;;;;;;5052072;28;20175;-82
2023/04/28 04:14:54;;;;;;;14.53;12.80;;;12.60;99.90;;;;;;5038906;28;20201;-83
2023/04/28 04:17:20;;;;;;;15.57;14.17;;;12.60;99.90;;;;;;5032274;28;20209;-83
2023/04/28 04:19:45;;;;;;;13.60;12.40;;;12.60;99.90;;;;;;5042178;28;20181;-83
2023/04/28 04:22:11;;;;;;;15.63;13.60;;;12.60;99.90;;;;;;5052404;28;20522;-82
2023/04/28 04:24:37;;;;;;;14.40;12.97;;;12.60;99.90;;;;;;5048111;28;20270;-81
2023/04/28 04:27:03;;;;;;;13.77;11.93;;;12.60;99.90;;;;;;5033272;28;20187;-84
2023/04/28 04:29:29;;;;;;;16.63;14.87;;;12.70;99.90;;;;;;5033513;28;20966;-82
2023/04/28 04:31:54;;;;;;;15.87;14.17;;;12.70;99.90;;;;;;5052569;28;20332;-82
2023/04/28 04:34:20;;;;;;;16.03;13.43;;;12.70;99.90;;;;;;5053231;28;20173;-83
2023/04/28 04:36:46;;;;;;;17.37;15.30;;;12.70;99.90;;;;;;5048020;28;20199;-82
2023/04/28 04:39:12;;;;;;;13.50;12.20;;;12.70;99.90;;;;;;5032226;28;20464;-83
2023/04/28 04:41:37;;;;;;;15.43;12.50;;;12.70;99.90;;;;;;5031457;28;20214;-81
2023/04/28 04:44:04;;;;;;;15.43;12.80;;;12.70;99.90;;;;;;5032307;28;20193;-83
2023/04/28 04:46:30;;;;;;;16.47;13.17;;;12.70;99.90;;;;;;5032984;28;20266;-83
2023/04/28 04:48:56;;;;;;;15.23;13.63;;;12.80;99.90;;;;;;5030894;28;21096;-84
2023/04/28 04:51:22;;;;;;;15.20;13.40;;;12.80;99.90;;;;;;5032893;28;20415;-82
2023/04/28 04:53:48;;;;;;;15.77;12.83;;;12.80;99.90;;;;;;5031753;28;20618;-82
2023/04/28 04:56:13;;;;;;;17.97;16.27;;;12.80;99.90;;;;;;5032815;28;20183;-83
2023/04/28 04:58:43;;;;;;;17.93;13.23;;;12.80;99.90;;;;;;5031968;28;20172;-81
2023/04/28 05:01:09;;;;;;;16.10;14.67;;;12.90;99.90;;;;;;5051422;28;20224;-83
2023/04/28 05:03:35;;;;;;;15.10;13.20;;;12.90;99.90;;;;;;5052973;28;20448;-83
2023/04/28 05:06:02;;;;;;;16.60;15.07;;;12.90;99.90;;;;;;5052184;28;20406;-82
2023/04/28 05:08:28;;;;;;;14.00;12.60;;;12.90;99.90;;;;;;5032574;28;20766;-83
2023/04/28 05:10:53;;;;;;;16.50;15.10;;;12.90;99.90;;;;;;5031845;28;20414;-83
2023/04/28 05:13:19;;;;;;;16.63;15.13;;;12.90;99.90;;;;;;5032202;28;20177;-83
2023/04/28 05:15:45;;;;;;;16.20;14.50;;;12.90;99.90;;;;;;5031969;28;20233;-82
2023/04/28 05:18:12;;;;;;;15.63;14.00;;;13.00;99.90;;;;;;5032417;28;20462;-83
2023/04/28 05:20:38;;;;;;;15.80;13.50;;;12.90;99.90;;;;;;5031903;28;20194;-81
2023/04/28 05:23:05;;;;;;;19.57;17.67;;;12.90;99.90;;;;;;5030906;28;20416;-83
2023/04/28 05:25:31;;;;;;;15.33;13.87;;;13.00;99.90;;;;;;5031118;28;20910;-83
2023/04/28 05:27:57;;;;;;;17.50;13.20;;;13.00;99.90;;;;;;5031709;28;20531;-81
2023/04/28 05:30:23;;;;;;;14.97;13.67;;;13.00;99.90;;;;;;5030996;28;20546;-83
2023/04/28 05:32:48;;;;;;;14.60;13.20;;;13.10;99.90;;;;;;5032551;28;20169;-83
2023/04/28 05:35:14;;;;;;;16.97;15.13;;;13.00;99.90;;;;;;5032213;28;20687;-84
2023/04/28 05:37:42;;;;;;;15.47;13.97;;;13.10;99.90;;;;;;5031826;28;20200;-81
2023/04/28 05:40:08;;;;;;;17.77;16.00;;;13.10;99.90;;;;;;5034290;28;20482;-83
2023/04/28 05:42:34;;;;;;;16.40;14.80;;;13.10;99.90;;;;;;5022471;28;20501;-84
2023/04/28 05:45:01;;;;;;;14.63;13.13;;;13.10;99.90;;;;;;5035916;28;21081;-88
2023/04/28 05:47:28;;;;;;;16.37;12.67;;;13.20;99.90;;;;;;5035278;28;20425;-88
2023/04/28 05:49:54;;;;;;;15.77;14.00;;;13.10;99.90;;;;;;5035669;28;20456;-90
2023/04/28 05:52:20;;;;;;;23.87;18.87;;;13.20;99.90;;;;;;5053055;28;20431;-95
2023/04/28 05:54:45;;;;;;;32.40;21.63;;;13.10;99.90;;;;;;5056892;28;20418;-90
2023/04/28 05:57:11;;;;;;;30.67;23.27;;;13.10;99.90;;;;;;5048407;28;20461;-93
2023/04/28 05:59:37;;;;;;;20.97;18.87;;;13.10;99.90;;;;;;5052264;28;20640;-95
2023/04/28 06:02:03;;;;;;;18.20;16.20;;;13.10;99.90;;;;;;5040771;28;20477;-84
2023/04/28 06:04:28;;;;;;;23.40;20.13;;;13.10;99.90;;;;;;5046602;28;20190;-88
2023/04/28 06:06:54;;;;;;;20.33;16.93;;;13.10;99.90;;;;;;5043649;28;20199;-91
2023/04/28 06:09:20;;;;;;;15.30;13.90;;;13.10;99.90;;;;;;5053009;28;20215;-89
2023/04/28 06:11:46;;;;;;;14.47;12.97;;;13.00;99.90;;;;;;5025069;28;20188;-87
2023/04/28 06:14:12;;;;;;;13.57;12.03;;;13.20;99.90;;;;;;5036176;28;20181;-90
2023/04/28 06:16:37;;;;;;;11.97;10.73;;;13.40;99.90;;;;;;5018523;28;20584;-92
2023/04/28 06:19:03;;;;;;;11.47;10.27;;;13.80;99.90;;;;;;5048910;28;20264;-90
2023/04/28 06:21:31;;;;;;;11.83;10.83;;;14.10;99.90;;;;;;5054810;28;20209;-92
2023/04/28 06:23:56;;;;;;;11.70;10.50;;;14.40;99.90;;;;;;5051858;28;20454;-91
2023/04/28 06:26:23;;;;;;;12.97;11.87;;;14.70;99.90;;;;;;5035322;28;20847;-91
2023/04/28 06:28:49;;;;;;;11.53;10.67;;;15.00;99.90;;;;;;5035242;28;20225;-88
2023/04/28 06:31:15;;;;;;;11.30;10.20;;;15.10;99.90;;;;;;5043026;28;20511;-87
2023/04/28 06:33:41;;;;;;;13.43;12.33;;;15.00;99.90;;;;;;5032772;28;20435;-86
2023/04/28 06:36:07;;;;;;;10.60;9.80;;;14.90;99.90;;;;;;5051477;28;20831;-86
2023/04/28 06:38:33;;;;;;;11.70;10.50;;;14.80;99.90;;;;;;5051130;28;20192;-86
2023/04/28 06:40:59;;;;;;;13.03;12.00;;;14.70;99.90;;;;;;5036709;28;20407;-88
2023/04/28 06:43:25;;;;;;;12.57;11.47;;;14.60;99.90;;;;;;5049377;28;20539;-95
2023/04/28 06:45:51;;;;;;;11.47;10.30;;;14.50;99.90;;;;;;5021939;28;20621;-93
2023/04/28 06:48:17;;;;;;;11.63;10.53;;;14.50;99.90;;;;;;5035359;28;20425;-87
2023/04/28 06:50:43;;;;;;;18.50;16.80;;;14.50;99.90;;;;;;5017655;28;20511;-87
2023/04/28 06:53:08;;;;;;;15.70;14.10;;;14.40;99.90;;;;;;5038496;28;20820;-89
2023/04/28 06:55:34;;;;;;;13.93;12.50;;;14.30;99.90;;;;;;5040595;28;20185;-95
2023/04/28 06:58:00;;;;;;;16.17;13.57;;;14.20;99.90;;;;;;5039078;28;20191;-87
2023/04/28 07:00:26;;;;;;;11.23;9.70;;;14.20;99.90;;;;;;5054967;28;20424;-86
2023/04/28 07:02:52;;;;;;;11.90;10.60;;;14.20;99.90;;;;;;5052797;28;20185;-89
2023/04/28 07:05:17;;;;;;;10.00;8.80;;;14.20;99.90;;;;;;5054603;28;20629;-87
2023/04/28 07:07:44;;;;;;;11.70;10.50;;;14.20;99.90;;;;;;5025376;28;20202;-86
2023/04/28 07:10:10;;;;;;;11.87;10.87;;;14.20;99.90;;;;;;5045934;28;20466;-89
2023/04/28 07:12:36;;;;;;;12.37;11.07;;;14.20;99.90;;;;;;5033986;28;20448;-89
2023/04/28 07:15:02;;;;;;;10.63;9.50;;;14.30;99.90;;;;;;5044102;28;20923;-89
2023/04/28 07:17:27;;;;;;;10.93;9.93;;;14.30;99.90;;;;;;5035387;28;20642;-89
2023/04/28 07:19:53;;;;;;;12.53;11.40;;;14.40;99.90;;;;;;5040914;28;20200;-90
2023/04/28 07:22:19;;;;;;;9.47;8.67;;;14.40;99.90;;;;;;5045038;28;20191;-89
2023/04/28 07:24:45;;;;;;;11.23;9.27;;;14.40;99.90;;;;;;5049929;28;20542;-88
2023/04/28 07:27:11;;;;;;;10.20;9.30;;;14.50;99.90;;;;;;5050261;28;20736;-91
2023/04/28 07:29:37;;;;;;;8.83;8.20;;;14.50;99.90;;;;;;5036067;28;20675;-90
2023/04/28 07:32:12;;;;;;;10.27;9.17;;;14.40;99.90;;;;;;5034471;28;20441;-90
2023/04/28 07:34:38;;;;;;;12.30;11.00;;;14.40;99.90;;;;;;5034878;28;20278;-90
2023/04/28 07:37:04;;;;;;;9.27;8.37;;;14.40;99.90;;;;;;5033871;28;20860;-89
2023/04/28 07:39:33;;;;;;;10.73;9.93;;;14.40;99.90;;;;;;5033275;28;20179;-89
2023/04/28 07:42:01;;;;;;;9.63;8.73;;;14.20;99.90;;;;;;5032680;28;20413;-89
2023/04/28 07:44:27;;;;;;;11.07;10.10;;;14.30;99.90;;;;;;5038364;28;20785;-89
2023/04/28 07:46:53;;;;;;;8.43;7.83;;;14.40;99.90;;;;;;5035844;28;20479;-90
2023/04/28 07:49:19;;;;;;;10.17;9.20;;;14.50;99.90;;;;;;5043439;28;20460;-90
2023/04/28 07:51:46;;;;;;;9.77;8.90;;;14.50;99.90;;;;;;5051750;28;20187;-90
2023/04/28 07:54:11;;;;;;;9.03;8.23;;;14.60;99.90;;;;;;5052652;28;20305;-90
2023/04/28 07:56:37;;;;;;;8.97;8.17;;;14.70;99.90;;;;;;5051766;28;20529;-90
2023/04/28 07:59:03;;;;;;;9.57;8.63;;;14.50;99.90;;;;;;5035946;28;20179;-90
2023/04/28 08:01:29;;;;;;;9.90;9.00;;;14.50;99.90;;;;;;5036216;28;20475;-90
2023/04/28 08:03:54;;;;;;;11.07;8.50;;;14.60;99.90;;;;;;5053693;28;20239;-89
2023/04/28 08:06:21;;;;;;;8.30;7.60;;;14.50;99.90;;;;;;5047092;28;20186;-91
2023/04/28 08:08:46;;;;;;;8.40;7.70;;;14.60;99.90;;;;;;5032669;28;20290;-84
2023/04/28 08:11:12;;;;;;;9.07;8.27;;;14.70;99.90;;;;;;5033132;28;20468;-89
2023/04/28 08:13:38;;;;;;;9.87;8.80;;;14.80;99.90;;;;;;5043831;28;20429;-89
2023/04/28 08:16:04;;;;;;;7.77;6.97;;;14.90;99.90;;;;;;5052499;28;20175;-89
2023/04/28 08:18:36;;;;;;;8.60;7.83;;;14.90;99.90;;;;;;5053032;28;20179;-89
2023/04/28 08:21:01;;;;;;;9.73;8.63;;;15.00;99.90;;;;;;5051841;28;20480;-89
2023/04/28 08:23:29;;;;;;;9.20;8.40;;;15.10;99.90;;;;;;5053346;28;20415;-89
2023/04/28 08:25:55;;;;;;;9.80;9.00;;;15.20;99.90;;;;;;5051543;28;20202;-89
2023/04/28 08:28:21;;;;;;;8.83;8.03;;;15.20;99.90;;;;;;5035916;28;20407;-89
2023/04/28 08:30:46;;;;;;;9.57;8.77;;;15.30;99.90;;;;;;5052721;28;20631;-89
2023/04/28 08:33:12;;;;;;;9.47;8.77;;;15.30;99.90;;;;;;5051454;28;20592;-89
2023/04/28 08:35:38;;;;;;;11.40;8.87;;;15.40;99.90;;;;;;5053790;28;20172;-88
2023/04/28 08:38:04;;;;;;;9.33;8.63;;;15.50;99.90;;;;;;5034892;28;20259;-89
2023/04/28 08:40:30;;;;;;;11.07;10.17;;;15.50;99.90;;;;;;5053206;28;20301;-89
2023/04/28 08:42:56;;;;;;;8.53;7.73;;;15.50;99.90;;;;;;5052435;28;20415;-88
2023/04/28 08:45:23;;;;;;;8.77;8.07;;;15.50;99.90;;;;;;5051923;28;20412;-88
2023/04/28 08:47:51;;;;;;;8.70;7.80;;;15.60;99.90;;;;;;5034630;28;20263;-86
2023/04/28 08:50:24;;;;;;;8.63;7.93;;;15.60;99.90;;;;;;5035338;28;20471;-88
2023/04/28 08:52:51;;;;;;;8.20;7.40;;;15.70;99.90;;;;;;5052145;28;20458;-85
2023/04/28 08:55:17;;;;;;;8.73;8.03;;;15.80;99.90;;;;;;5053169;28;20862;-88
2023/04/28 08:57:53;;;;;;;9.73;8.50;;;15.80;99.90;;;;;;5051584;28;20496;-89
2023/04/28 09:00:19;;;;;;;10.20;9.20;;;15.90;99.90;;;;;;5051753;28;20910;-88
2023/04/28 09:02:45;;;;;;;9.80;8.90;;;15.90;99.90;;;;;;5036098;28;20404;-88
2023/04/28 09:05:12;;;;;;;9.70;8.73;;;15.90;99.90;;;;;;5052418;28;20424;-88
2023/04/28 09:07:39;;;;;;;9.50;8.50;;;15.90;99.90;;;;;;5061292;28;20172;-87
2023/04/28 09:10:21;;;;;;;9.57;8.53;;;16.00;99.90;;;;;;5051575;28;20543;-88
2023/04/28 09:12:50;;;;;;;12.67;11.47;;;16.00;99.90;;;;;;5054481;28;20420;-88
2023/04/28 09:15:45;;;;;;;10.20;9.30;;;16.00;99.90;;;;;;5053309;28;20453;-88
2023/04/28 09:18:14;;;;;;;11.57;10.60;;;16.10;99.90;;;;;;5039528;28;20691;-88
2023/04/28 09:20:40;;;;;;;10.83;9.80;;;16.00;99.90;;;;;;5058506;28;20423;-87
2023/04/28 09:23:13;;;;;;;9.10;8.30;;;16.00;99.90;;;;;;5058652;28;20415;-88
2023/04/28 09:25:39;;;;;;;8.50;7.70;;;15.70;99.90;;;;;;5053526;28;20527;-88
2023/04/28 09:28:21;;;;;;;11.63;10.50;;;15.70;99.90;;;;;;5034267;28;20473;-88
2023/04/28 09:30:47;;;;;;;11.60;9.53;;;15.50;99.90;;;;;;5051599;28;20198;-88
2023/04/28 09:33:14;;;;;;;9.70;8.80;;;15.50;99.90;;;;;;5050850;28;20468;-88
2023/04/28 09:35:42;;;;;;;10.57;9.57;;;15.50;99.90;;;;;;5052474;28;20507;-88
2023/04/28 09:38:08;;;;;;;10.40;9.17;;;15.50;99.90;;;;;;5050729;28;20407;-88
2023/04/28 09:40:54;;;;;;;12.77;9.17;;;15.50;99.90;;;;;;5051333;28;20820;-88
2023/04/28 09:43:25;;;;;;;9.87;8.87;;;15.60;99.90;;;;;;5051506;28;20414;-89
2023/04/28 09:45:52;;;;;;;10.70;9.60;;;15.70;99.90;;;;;;5052600;28;20415;-88
2023/04/28 09:48:29;;;;;;;11.40;10.40;;;15.60;99.90;;;;;;5052417;28;20424;-89
2023/04/28 09:50:56;;;;;;;11.60;10.53;;;15.70;99.90;;;;;;5051494;28;20930;-88
2023/04/28 09:53:23;;;;;;;10.00;9.00;;;15.70;99.90;;;;;;5051997;28;20468;-88
2023/04/28 09:55:51;;;;;;;12.30;11.30;;;15.80;99.90;;;;;;5052817;28;20426;-88
2023/04/28 09:58:20;;;;;;;10.47;9.27;;;15.70;99.90;;;;;;5053336;28;20400;-88
2023/04/28 10:00:52;;;;;;;9.43;8.63;;;15.80;99.90;;;;;;5051197;28;20413;-88
2023/04/28 10:03:23;;;;;;;11.07;10.17;;;15.90;99.90;;;;;;5034299;28;20795;-88
2023/04/28 10:05:50;;;;;;;10.50;9.70;;;16.00;99.90;;;;;;5051481;28;20450;-89
2023/04/28 10:08:18;;;;;;;10.10;8.10;;;16.00;99.90;;;;;;5050489;28;20411;-88
2023/04/28 10:10:47;;;;;;;10.33;8.43;;;16.00;99.90;;;;;;5051135;28;20540;-88
2023/04/28 10:13:18;;;;;;;10.90;9.97;;;16.20;99.90;;;;;;5051708;28;20443;-88
2023/04/28 10:15:47;;;;;;;8.50;7.80;;;16.20;99.90;;;;;;5052073;28;20389;-88
2023/04/28 10:18:14;;;;;;;8.40;7.70;;;16.20;99.90;;;;;;5049827;28;20412;-88
2023/04/28 10:20:45;;;;;;;9.60;8.63;;;16.20;99.90;;;;;;5052092;28;20480;-88
2023/04/28 10:23:30;;;;;;;8.87;8.10;;;16.10;99.90;;;;;;5051817;28;20419;-88
2023/04/28 10:25:58;;;;;;;8.60;7.80;;;16.20;99.90;;;;;;5051903;28;20976;-88
2023/04/28 10:28:26;;;;;;;9.67;8.67;;;16.10;99.90;;;;;;5056242;28;20499;-88
2023/04/28 10:31:11;;;;;;;10.30;9.30;;;16.10;99.90;;;;;;5054284;28;20481;-88
2023/04/28 10:33:38;;;;;;;9.30;8.50;;;16.20;99.90;;;;;;5054673;28;20457;-88
2023/04/28 10:36:06;;;;;;;9.70;8.80;;;16.30;99.90;;;;;;5053829;28;20411;-88
2023/04/28 10:38:32;;;;;;;9.90;9.00;;;16.30;99.90;;;;;;5037628;28;20428;-89
2023/04/28 10:41:02;;;;;;;9.90;8.90;;;16.40;99.90;;;;;;5054448;28;20470;-89
2023/04/28 10:43:54;;;;;;;10.20;9.30;;;16.40;99.90;;;;;;5054348;28;20937;-88
2023/04/28 10:46:19;;;;;;;9.13;8.23;;;16.20;99.90;;;;;;5050528;28;20424;-89
2023/04/28 10:48:45;;;;;;;9.53;8.67;;;16.30;99.90;;;;;;5055448;28;20961;-89
2023/04/28 10:51:14;;;;;;;10.33;9.40;;;16.40;99.90;;;;;;5053320;28;20177;-89
2023/04/28 10:53:45;;;;;;;9.13;8.43;;;16.40;99.90;;;;;;5055217;28;20231;-89
2023/04/28 10:56:23;;;;;;;9.13;8.23;;;16.40;99.90;;;;;;5054443;28;20423;-89
2023/04/28 10:58:57;;;;;;;9.43;8.30;;;16.50;99.90;;;;;;5055944;28;20891;-89
2023/04/28 11:01:33;;;;;;;10.00;9.20;;;16.30;99.90;;;;;;5037110;28;20473;-89
2023/04/28 11:04:12;;;;;;;9.77;8.97;;;16.20;99.90;;;;;;5053570;28;20801;-89
2023/04/28 11:06:40;;;;;;;8.67;7.87;;;16.20;99.90;;;;;;5054941;28;20457;-89
2023/04/28 11:09:12;;;;;;;11.87;8.97;;;16.40;99.90;;;;;;5053310;28;20555;-89
2023/04/28 11:11:39;;;;;;;8.23;7.57;;;16.40;99.90;;;;;;5037058;28;20932;-89
2023/04/28 11:14:17;;;;;;;8.73;7.90;;;16.50;99.90;;;;;;5054295;28;20745;-89
2023/04/28 11:17:01;;;;;;;7.63;7.00;;;16.40;99.90;;;;;;5054598;28;20435;-89
2023/04/28 11:19:32;;;;;;;8.83;8.17;;;16.40;99.90;;;;;;5054492;28;20408;-89
2023/04/28 11:22:00;;;;;;;8.00;7.40;;;16.40;99.90;;;;;;5054966;28;20767;-89
2023/04/28 11:24:31;;;;;;;9.13;8.43;;;16.50;99.90;;;;;;5054200;28;20430;-89
2023/04/28 11:26:59;;;;;;;7.73;7.13;;;16.50;99.90;;;;;;5037560;28;20499;-89
2023/04/28 11:29:34;;;;;;;8.40;7.70;;;16.60;99.90;;;;;;5054674;28;20492;-89
2023/04/28 11:32:09;;;;;;;7.37;6.87;;;16.40;99.90;;;;;;5035839;28;20423;-89
2023/04/28 11:34:36;;;;;;;7.90;7.40;;;16.40;99.90;;;;;;5053404;28;20853;-89
2023/04/28 11:37:02;;;;;;;8.23;7.50;;;16.30;99.90;;;;;;5056193;28;20416;-90
2023/04/28 11:39:34;;;;;;;7.60;7.03;;;16.30;99.90;;;;;;5056430;28;20765;-90
2023/04/28 11:42:01;;;;;;;7.60;7.10;;;16.30;99.90;;;;;;5056099;28;20409;-86
2023/04/28 11:44:29;;;;;;;7.90;7.30;;;16.30;99.90;;;;;;5056421;28;20495;-89
2023/04/28 11:46:59;;;;;;;8.60;7.90;;;16.30;99.90;;;;;;5057204;28;20816;-90
2023/04/28 11:49:29;;;;;;;8.17;7.57;;;16.30;99.90;;;;;;5055003;28;20903;-89
2023/04/28 11:52:04;;;;;;;8.33;7.73;;;16.30;99.90;;;;;;5057015;28;20413;-89
2023/04/28 11:54:31;;;;;;;8.13;7.47;;;16.30;99.90;;;;;;5056102;28;20459;-89
2023/04/28 11:57:02;;;;;;;7.47;6.97;;;16.30;99.90;;;;;;5058434;28;20505;-88
2023/04/28 11:59:30;;;;;;;8.00;7.40;;;16.30;99.90;;;;;;5060416;28;20401;-89
2023/04/28 12:02:05;;;;;;;7.00;6.50;;;16.40;99.90;;;;;;5061843;28;20435;-89
2023/04/28 12:04:35;;;;;;;6.60;6.00;;;16.40;99.90;;;;;;5059991;28;20415;-90
2023/04/28 12:07:14;;;;;;;7.23;6.63;;;16.40;99.90;;;;;;5063613;28;20416;-85
2023/04/28 12:09:41;;;;;;;7.07;6.57;;;16.50;99.90;;;;;;5050374;28;20451;-89
2023/04/28 12:12:09;;;;;;;6.27;5.77;;;16.50;99.90;;;;;;5066147;28;20915;-89
2023/04/28 12:15:00;;;;;;;6.93;6.53;;;16.60;99.90;;;;;;5067860;28;20574;-90
2023/04/28 12:17:31;;;;;;;6.20;5.80;;;16.60;99.90;;;;;;5067543;28;20397;-89
2023/04/28 12:19:59;;;;;;;6.10;5.60;;;16.60;99.90;;;;;;5043365;28;20824;-90
2023/04/28 12:22:25;;;;;;;7.30;6.70;;;16.60;99.90;;;;;;5057568;28;20420;-90
2023/04/28 12:25:07;;;;;;;5.90;5.50;;;16.60;99.90;;;;;;5057902;28;20404;-90
2023/04/28 12:27:35;;;;;;;6.97;6.47;;;16.50;99.90;;;;;;5056646;28;20419;-90
2023/04/28 12:30:01;;;;;;;7.63;7.13;;;16.60;99.90;;;;;;5056347;28;20482;-89
2023/04/28 12:32:42;;;;;;;7.80;7.20;;;16.60;99.90;;;;;;5057065;28;20412;-90
2023/04/28 12:35:08;;;;;;;8.10;7.40;;;16.70;99.90;;;;;;5056004;28;20652;-90